Time;durP1;ratioP1;P1;durP2;ratioP2;P2;SDS_P1;SDS_P2;PMS_P1;PMS_P2;Temp;Humidity;BMP_temperature;BMP_pressure;BME280_temperature;BME280_humidity;BME280_pressure;Samples;Min_cycle;Max_cycle;Signal;HPM_P1;HPM_P2
2023/03/15 00:00:49;;;;;;;2.30;0.43;;;3.80;99.90;;;;;;5113477;28;20047;-48
2023/03/15 00:03:15;;;;;;;1.52;0.43;;;3.70;99.90;;;;;;5114651;28;20043;-47
2023/03/15 00:05:44;;;;;;;1.13;0.45;;;3.70;99.90;;;;;;5106191;28;20058;-47
2023/03/15 00:08:12;;;;;;;0.47;0.38;;;3.70;99.90;;;;;;5100545;28;20064;-48
2023/03/15 00:10:40;;;;;;;0.63;0.40;;;3.60;99.90;;;;;;5093317;28;20094;-49
2023/03/15 00:13:08;;;;;;;0.68;0.22;;;3.60;99.90;;;;;;5093658;28;20067;-48
2023/03/15 00:15:35;;;;;;;2.85;0.55;;;3.60;99.90;;;;;;5102941;28;20061;-48
2023/03/15 00:18:02;;;;;;;0.98;0.38;;;3.60;99.90;;;;;;5095856;28;20065;-47
2023/03/15 00:20:29;;;;;;;1.85;0.28;;;3.50;99.90;;;;;;5092996;28;20048;-48
2023/03/15 00:22:56;;;;;;;0.80;0.35;;;3.50;99.90;;;;;;5093589;28;20097;-48
2023/03/15 00:25:23;;;;;;;0.95;0.50;;;3.50;99.90;;;;;;5100322;28;20066;-48
2023/03/15 00:27:50;;;;;;;1.73;0.45;;;3.50;99.90;;;;;;5093307;28;20093;-48
2023/03/15 00:30:17;;;;;;;2.55;0.50;;;3.50;99.90;;;;;;5080755;28;20078;-49
2023/03/15 00:32:43;;;;;;;1.52;0.50;;;3.40;99.90;;;;;;5109026;28;20460;-48
2023/03/15 00:35:17;;;;;;;0.65;0.32;;;3.40;99.90;;;;;;5113010;28;20039;-49
2023/03/15 00:37:44;;;;;;;2.40;0.57;;;3.40;99.90;;;;;;5112610;28;20039;-48
2023/03/15 00:40:11;;;;;;;0.70;0.43;;;3.40;99.90;;;;;;5100110;28;20071;-49
2023/03/15 00:42:39;;;;;;;2.00;0.50;;;3.40;99.90;;;;;;5089278;28;20082;-49
2023/03/15 00:45:06;;;;;;;2.30;0.60;;;3.40;99.90;;;;;;5113470;28;20529;-48
2023/03/15 00:47:33;;;;;;;;;;;3.50;99.90;;;;;;5093834;28;20040;-49
2023/03/15 00:50:00;;;;;;;2.08;0.70;;;3.40;99.90;;;;;;5076365;28;20338;-49
2023/03/15 00:52:26;;;;;;;2.25;0.38;;;3.40;99.90;;;;;;5073665;28;20055;-49
2023/03/15 00:54:54;;;;;;;1.13;0.60;;;3.40;99.90;;;;;;5092466;28;20052;-49
2023/03/15 00:57:21;;;;;;;1.40;0.40;;;3.40;99.90;;;;;;5092638;28;20390;-50
2023/03/15 00:59:48;;;;;;;3.83;0.73;;;3.40;99.90;;;;;;5082595;28;20039;-48
2023/03/15 01:02:15;;;;;;;1.17;0.30;;;3.30;99.90;;;;;;5093012;28;20109;-48
2023/03/15 01:04:43;;;;;;;4.25;0.50;;;3.30;99.90;;;;;;5092307;28;20081;-47
2023/03/15 01:07:11;;;;;;;0.80;0.40;;;3.30;99.90;;;;;;5093030;28;20439;-49
2023/03/15 01:09:37;;;;;;;3.00;0.50;;;3.30;99.90;;;;;;5093123;28;20496;-48
2023/03/15 01:12:04;;;;;;;5.45;0.60;;;3.30;99.90;;;;;;5092813;28;20047;-49
2023/03/15 01:14:34;;;;;;;1.27;0.60;;;3.30;99.90;;;;;;5074754;28;20040;-48
2023/03/15 01:17:00;;;;;;;2.75;0.40;;;3.30;99.90;;;;;;5074748;28;20044;-47
2023/03/15 01:19:27;;;;;;;3.53;0.55;;;3.20;99.90;;;;;;5101570;28;20488;-47
2023/03/15 01:21:54;;;;;;;5.25;0.50;;;3.30;99.90;;;;;;5109842;28;20043;-48
2023/03/15 01:24:20;;;;;;;0.55;0.32;;;3.30;99.90;;;;;;5099187;28;20446;-48
2023/03/15 01:26:49;;;;;;;2.20;0.45;;;3.30;99.90;;;;;;5074326;28;20487;-48
2023/03/15 01:29:16;;;;;;;1.30;0.30;;;3.20;99.90;;;;;;5073660;28;20047;-48
2023/03/15 01:31:43;;;;;;;2.03;0.50;;;3.20;99.90;;;;;;5091009;28;20040;-48
2023/03/15 01:34:10;;;;;;;2.60;0.50;;;3.20;99.90;;;;;;5073686;28;20047;-49
2023/03/15 01:36:37;;;;;;;3.38;0.63;;;3.20;99.90;;;;;;5091336;28;20500;-48
2023/03/15 01:39:04;;;;;;;1.08;0.50;;;3.20;99.90;;;;;;5092202;28;20048;-47
2023/03/15 01:41:42;;;;;;;1.77;0.70;;;3.20;99.90;;;;;;5089715;28;20108;-47
2023/03/15 01:44:11;;;;;;;;;;;3.20;99.90;;;;;;5094814;28;20526;-47
2023/03/15 01:46:38;;;;;;;0.73;0.57;;;3.20;99.90;;;;;;5093152;28;19923;-48
2023/03/15 01:49:31;;;;;;;0.47;0.40;;;3.30;99.90;;;;;;5095948;28;20051;-49
2023/03/15 01:52:08;;;;;;;1.35;0.70;;;3.20;99.90;;;;;;5092275;28;20047;-48
2023/03/15 01:54:50;;;;;;;2.33;0.70;;;3.30;99.90;;;;;;5092296;28;20492;-49
2023/03/15 01:57:28;;;;;;;0.98;0.45;;;3.30;99.90;;;;;;5073579;28;20492;-48
2023/03/15 02:00:09;;;;;;;2.13;0.57;;;3.30;99.90;;;;;;5078050;28;20052;-50
2023/03/15 02:02:46;;;;;;;3.65;0.50;;;3.30;99.90;;;;;;5098794;28;20048;-48
2023/03/15 02:05:24;;;;;;;3.22;0.38;;;3.40;99.90;;;;;;5073630;28;20447;-48
2023/03/15 02:07:53;;;;;;;4.00;0.70;;;3.50;99.90;;;;;;5073534;28;20089;-48
2023/03/15 02:10:31;;;;;;;5.78;0.60;;;3.50;99.90;;;;;;5092557;28;20040;-48
2023/03/15 02:13:01;;;;;;;1.20;0.47;;;3.50;99.90;;;;;;5076944;28;20052;-47
2023/03/15 02:15:30;;;;;;;1.85;0.77;;;3.50;99.90;;;;;;5093978;28;20449;-48
2023/03/15 02:17:58;;;;;;;1.98;0.80;;;3.50;99.90;;;;;;5091596;28;20575;-47
2023/03/15 02:20:49;;;;;;;0.60;0.30;;;3.50;99.90;;;;;;5086177;28;20039;-47
2023/03/15 02:23:18;;;;;;;1.55;0.47;;;3.40;99.90;;;;;;5111706;28;20047;-49
2023/03/15 02:26:23;;;;;;;0.55;0.30;;;3.40;99.90;;;;;;5093984;28;20043;-48
2023/03/15 02:28:52;;;;;;;2.10;0.40;;;3.40;99.90;;;;;;5076898;28;20089;-49
2023/03/15 02:31:20;;;;;;;2.20;0.80;;;3.40;99.90;;;;;;5075281;28;20412;-48
2023/03/15 02:33:54;;;;;;;2.30;1.23;;;3.40;99.90;;;;;;5069095;28;20451;-47
2023/03/15 02:36:26;;;;;;;0.82;0.30;;;3.30;99.90;;;;;;5072502;28;20048;-48
2023/03/15 02:38:54;;;;;;;1.00;0.40;;;3.20;99.90;;;;;;5091209;28;20389;-48
2023/03/15 02:41:27;;;;;;;0.60;0.40;;;3.00;99.90;;;;;;5096360;28;20040;-47
2023/03/15 02:43:59;;;;;;;0.68;0.30;;;2.90;99.90;;;;;;5091475;28;20519;-47
2023/03/15 02:46:26;;;;;;;2.80;0.60;;;2.90;99.90;;;;;;5073322;28;20051;-48
2023/03/15 02:48:53;;;;;;;2.83;0.60;;;2.80;99.90;;;;;;5056330;28;20040;-47
2023/03/15 02:51:27;;;;;;;0.40;0.40;;;2.90;99.90;;;;;;5089568;28;20054;-47
2023/03/15 02:53:53;;;;;;;6.50;0.73;;;2.90;99.90;;;;;;5084845;28;20500;-48
2023/03/15 02:56:20;;;;;;;1.60;0.73;;;2.90;99.90;;;;;;5073048;28;20420;-47
2023/03/15 02:58:47;;;;;;;0.50;0.50;;;2.90;99.90;;;;;;5074160;28;20096;-47
2023/03/15 03:01:15;;;;;;;0.95;0.40;;;2.80;99.90;;;;;;5098150;28;20040;-47
2023/03/15 03:03:44;;;;;;;2.15;0.40;;;2.90;99.90;;;;;;5088284;28;20036;-47
2023/03/15 03:06:14;;;;;;;0.22;0.17;;;2.80;99.90;;;;;;5076973;28;20036;-47
2023/03/15 03:08:46;;;;;;;0.52;0.20;;;2.80;99.90;;;;;;5082992;28;20035;-48
2023/03/15 03:11:15;;;;;;;2.28;0.20;;;2.80;99.90;;;;;;5076473;28;20040;-47
2023/03/15 03:13:42;;;;;;;2.00;0.38;;;2.90;99.90;;;;;;5094038;28;20048;-48
2023/03/15 03:16:09;;;;;;;0.65;0.15;;;2.90;99.90;;;;;;5097473;28;20104;-48
2023/03/15 03:18:37;;;;;;;;;;;2.90;99.90;;;;;;5096126;28;20073;-47
2023/03/15 03:21:06;;;;;;;1.52;0.20;;;3.00;99.90;;;;;;5097201;28;20295;-47
2023/03/15 03:23:34;;;;;;;0.20;0.17;;;3.00;99.90;;;;;;5115242;28;20035;-47
2023/03/15 03:26:02;;;;;;;2.13;0.30;;;3.00;99.90;;;;;;5097241;28;20050;-48
2023/03/15 03:28:32;;;;;;;1.98;0.03;;;3.10;99.90;;;;;;5094841;28;20040;-47
2023/03/15 03:31:00;;;;;;;0.10;0.10;;;3.10;99.90;;;;;;5097064;28;20489;-47
2023/03/15 03:33:27;;;;;;;1.90;0.35;;;3.10;99.90;;;;;;5093994;28;20074;-47
2023/03/15 03:36:00;;;;;;;0.43;0.20;;;3.00;99.90;;;;;;5093792;28;20044;-48
2023/03/15 03:38:28;;;;;;;3.50;0.45;;;3.10;99.90;;;;;;5095415;28;20039;-48
2023/03/15 03:40:57;;;;;;;0.15;0.15;;;3.10;99.90;;;;;;5096668;28;20092;-47
2023/03/15 03:43:26;;;;;;;1.80;0.40;;;3.00;99.90;;;;;;5095476;28;20126;-49
2023/03/15 03:45:53;;;;;;;0.90;0.25;;;3.00;99.90;;;;;;5106585;28;20043;-47
2023/03/15 03:48:20;;;;;;;5.55;0.55;;;3.00;99.90;;;;;;5094394;28;20484;-47
2023/03/15 03:50:47;;;;;;;1.38;0.28;;;3.10;99.90;;;;;;5079944;28;20044;-49
2023/03/15 03:53:14;;;;;;;0.28;0.20;;;3.10;99.90;;;;;;5076027;28;20081;-47
2023/03/15 03:55:41;;;;;;;2.08;0.32;;;3.10;99.90;;;;;;5075033;28;20048;-47
2023/03/15 03:58:08;;;;;;;0.55;0.32;;;3.20;99.90;;;;;;5081204;28;20048;-48
2023/03/15 04:00:47;;;;;;;2.90;0.45;;;3.10;99.90;;;;;;5088116;28;20072;-47
2023/03/15 04:03:14;;;;;;;0.40;0.20;;;3.10;99.90;;;;;;5096845;28;20100;-47
2023/03/15 04:05:45;;;;;;;1.58;0.40;;;3.10;99.90;;;;;;5073467;22;20045;-48
2023/03/15 04:08:16;;;;;;;0.60;0.35;;;3.10;99.90;;;;;;5051834;28;20060;-50
2023/03/15 04:10:43;;;;;;;0.57;0.38;;;3.10;99.90;;;;;;5053734;28;20049;-47
2023/03/15 04:13:10;;;;;;;1.38;0.55;;;3.10;99.90;;;;;;5052744;28;20574;-48
2023/03/15 04:15:37;;;;;;;2.10;0.40;;;3.20;99.90;;;;;;5037526;28;20033;-50
2023/03/15 04:18:04;;;;;;;0.55;0.38;;;3.20;99.90;;;;;;5032610;28;20041;-49
2023/03/15 04:20:38;;;;;;;1.60;0.50;;;3.10;99.90;;;;;;5031392;28;20472;-48
2023/03/15 04:23:06;;;;;;;0.75;0.32;;;3.10;99.90;;;;;;5030377;28;20049;-49
2023/03/15 04:25:39;;;;;;;0.65;0.57;;;3.00;99.90;;;;;;5031726;28;20037;-48
2023/03/15 04:28:29;;;;;;;0.63;0.20;;;3.10;99.90;;;;;;5022978;28;20056;-48
2023/03/15 04:31:14;;;;;;;4.03;0.32;;;3.00;99.90;;;;;;5033293;28;20060;-48
2023/03/15 04:34:10;;;;;;;2.33;0.30;;;2.80;99.90;;;;;;5019383;28;20575;-48
2023/03/15 04:36:48;;;;;;;0.60;0.20;;;2.70;99.90;;;;;;5031864;28;20133;-48
2023/03/15 04:39:35;;;;;;;0.50;0.50;;;2.70;99.90;;;;;;5031865;28;20061;-48
2023/03/15 04:42:13;;;;;;;0.30;0.22;;;2.70;99.90;;;;;;5031925;28;20091;-48
2023/03/15 04:45:04;;;;;;;0.43;0.20;;;2.70;99.90;;;;;;5025985;28;20132;-49
2023/03/15 04:47:50;;;;;;;0.25;0.25;;;2.70;99.90;;;;;;5033062;28;20052;-48
2023/03/15 04:50:39;;;;;;;1.45;0.50;;;2.50;99.90;;;;;;5030296;28;20076;-48
2023/03/15 04:53:14;;;;;;;3.75;1.00;;;2.30;99.90;;;;;;5048716;28;20151;-48
2023/03/15 04:55:56;;;;;;;6.95;0.73;;;1.90;99.90;;;;;;5042456;28;20059;-48
2023/03/15 04:58:40;;;;;;;2.90;0.95;;;1.50;99.90;;;;;;5030902;28;20095;-47
2023/03/15 05:01:29;;;;;;;11.52;1.25;;;1.20;99.90;;;;;;5022973;28;20053;-48
2023/03/15 05:04:15;;;;;;;1.60;0.85;;;1.10;99.90;;;;;;5031626;28;20136;-48
2023/03/15 05:06:51;;;;;;;4.28;1.00;;;1.00;99.90;;;;;;5036176;28;20045;-48
2023/03/15 05:09:37;;;;;;;3.83;1.60;;;0.90;99.90;;;;;;5030434;28;20049;-49
2023/03/15 05:12:24;;;;;;;4.25;1.70;;;0.90;99.90;;;;;;5033056;28;20049;-49
2023/03/15 05:15:00;;;;;;;4.30;1.70;;;0.80;99.90;;;;;;5037992;28;20405;-48
2023/03/15 05:17:35;;;;;;;7.20;2.30;;;0.80;99.90;;;;;;5030152;28;20049;-47
2023/03/15 05:20:38;;;;;;;5.55;2.08;;;0.80;99.90;;;;;;5029973;28;20045;-47
2023/03/15 05:23:16;;;;;;;8.95;2.58;;;0.80;99.90;;;;;;5030982;28;20057;-48
2023/03/15 05:25:52;;;;;;;5.07;1.73;;;0.70;99.90;;;;;;5032239;28;20049;-48
2023/03/15 05:28:44;;;;;;;7.68;1.80;;;0.80;99.90;;;;;;5029840;28;20052;-48
2023/03/15 05:31:43;;;;;;;9.23;1.67;;;0.80;99.90;;;;;;5026581;28;20068;-48
2023/03/15 05:34:25;;;;;;;6.68;1.42;;;0.80;99.90;;;;;;5027361;28;20137;-48
2023/03/15 05:37:00;;;;;;;5.43;2.20;;;0.90;99.90;;;;;;5026971;28;20054;-48
2023/03/15 05:39:43;;;;;;;8.77;2.30;;;0.90;99.90;;;;;;5024546;28;20123;-48
2023/03/15 05:42:31;;;;;;;2.78;1.48;;;0.90;99.90;;;;;;5024147;28;20037;-48
2023/03/15 05:45:17;;;;;;;13.13;2.20;;;1.00;99.90;;;;;;5030629;28;20068;-53
2023/03/15 05:48:04;;;;;;;4.85;2.10;;;1.00;99.90;;;;;;5009719;28;20053;-47
2023/03/15 05:50:37;;;;;;;6.13;1.83;;;1.00;99.90;;;;;;5022284;28;20068;-47
2023/03/15 05:53:22;;;;;;;4.72;2.00;;;1.00;99.90;;;;;;5029220;28;20067;-49
2023/03/15 05:56:19;;;;;;;5.65;1.95;;;1.10;99.90;;;;;;5018029;28;20053;-48
2023/03/15 05:59:04;;;;;;;5.07;2.20;;;1.00;99.90;;;;;;5029339;28;20401;-48
2023/03/15 06:01:43;;;;;;;7.03;2.03;;;1.00;99.90;;;;;;5028096;28;20119;-49
2023/03/15 06:04:18;;;;;;;7.75;2.10;;;1.00;99.90;;;;;;5026001;28;20132;-51
2023/03/15 06:06:45;;;;;;;3.80;1.88;;;1.00;99.90;;;;;;5027822;28;20546;-47
2023/03/15 06:09:12;;;;;;;;;;;1.00;99.90;;;;;;5028093;28;20049;-48
2023/03/15 06:11:39;;;;;;;6.53;2.03;;;0.90;99.90;;;;;;5046437;28;19943;-47
2023/03/15 06:14:10;;;;;;;4.60;1.85;;;0.90;99.90;;;;;;5030174;28;20048;-47
2023/03/15 06:16:46;;;;;;;4.65;2.50;;;0.90;99.90;;;;;;5029041;28;20072;-48
2023/03/15 06:19:20;;;;;;;4.20;1.98;;;0.90;99.90;;;;;;5030760;28;20041;-51
2023/03/15 06:21:47;;;;;;;6.60;2.63;;;0.90;99.90;;;;;;5029575;28;20052;-48
2023/03/15 06:24:22;;;;;;;9.25;2.80;;;0.90;99.90;;;;;;5025671;28;20041;-47
2023/03/15 06:26:48;;;;;;;7.03;2.47;;;1.00;99.90;;;;;;5027029;28;20414;-48
2023/03/15 06:29:16;;;;;;;;;;;0.90;99.90;;;;;;5030225;28;20045;-47
2023/03/15 06:31:48;;;;;;;4.05;2.28;;;0.90;99.90;;;;;;5025830;28;19925;-47
2023/03/15 06:34:16;;;;;;;7.30;2.33;;;0.90;99.90;;;;;;5044996;28;20124;-49
2023/03/15 06:36:44;;;;;;;8.63;2.30;;;1.00;99.90;;;;;;5046216;28;20037;-47
2023/03/15 06:39:12;;;;;;;5.82;2.40;;;1.00;99.90;;;;;;5029556;28;20045;-47
2023/03/15 06:41:40;;;;;;;6.65;2.65;;;1.00;99.90;;;;;;5031282;28;20048;-47
2023/03/15 06:44:12;;;;;;;9.48;2.47;;;0.90;99.90;;;;;;5029412;28;20080;-48
2023/03/15 06:46:40;;;;;;;8.68;2.17;;;0.90;99.90;;;;;;5046256;28;20103;-49
2023/03/15 06:49:07;;;;;;;12.60;2.22;;;1.00;99.90;;;;;;5029645;28;20045;-48
2023/03/15 06:51:35;;;;;;;7.10;2.10;;;1.00;99.90;;;;;;5044636;28;20038;-47
2023/03/15 06:54:02;;;;;;;6.57;2.63;;;1.00;99.90;;;;;;5029933;28;20443;-49
2023/03/15 06:56:36;;;;;;;8.13;2.42;;;1.10;99.90;;;;;;5028996;28;20132;-52
2023/03/15 06:59:03;;;;;;;7.55;2.83;;;1.10;99.90;;;;;;5030901;28;20045;-48
2023/03/15 07:01:30;;;;;;;;;;;1.00;99.90;;;;;;5029465;28;20076;-50
2023/03/15 07:03:56;;;;;;;7.97;2.60;;;1.10;99.90;;;;;;5030847;28;19920;-49
2023/03/15 07:06:23;;;;;;;7.65;1.65;;;1.00;99.90;;;;;;5030698;28;20486;-47
2023/03/15 07:08:50;;;;;;;17.73;2.72;;;1.10;99.90;;;;;;5029893;28;20285;-47
2023/03/15 07:11:17;;;;;;;7.22;2.15;;;1.10;99.90;;;;;;5022764;28;20049;-49
2023/03/15 07:13:43;;;;;;;6.90;2.13;;;1.10;99.90;;;;;;5029177;28;20037;-47
2023/03/15 07:16:10;;;;;;;10.40;2.58;;;1.20;99.90;;;;;;5030891;28;20441;-48
2023/03/15 07:18:37;;;;;;;7.45;3.40;;;1.20;99.90;;;;;;5029042;28;20095;-48
2023/03/15 07:21:05;;;;;;;8.23;2.40;;;1.30;99.90;;;;;;5029876;28;20104;-47
2023/03/15 07:23:32;;;;;;;8.20;1.85;;;1.20;99.90;;;;;;5030863;28;20038;-49
2023/03/15 07:25:59;;;;;;;10.50;1.60;;;1.20;99.90;;;;;;5030831;28;20033;-48
2023/03/15 07:28:27;;;;;;;9.20;1.42;;;1.30;99.90;;;;;;5028794;28;20600;-48
2023/03/15 07:31:00;;;;;;;10.85;2.40;;;1.40;99.90;;;;;;5030929;28;20041;-51
2023/03/15 07:33:29;;;;;;;12.35;1.85;;;1.40;99.90;;;;;;5030714;28;20375;-47
2023/03/15 07:35:55;;;;;;;5.20;1.33;;;1.40;99.90;;;;;;5027342;28;20053;-48
2023/03/15 07:38:25;;;;;;;9.20;1.40;;;1.60;99.90;;;;;;5030194;28;20045;-47
2023/03/15 07:40:51;;;;;;;7.38;1.67;;;1.60;99.90;;;;;;5030020;28;20041;-48
2023/03/15 07:43:18;;;;;;;5.40;1.10;;;1.70;99.90;;;;;;5029459;28;20037;-47
2023/03/15 07:45:49;;;;;;;7.05;1.65;;;1.80;99.90;;;;;;5044844;28;20056;-47
2023/03/15 07:48:16;;;;;;;7.60;1.50;;;1.80;99.90;;;;;;5028567;28;20050;-47
2023/03/15 07:50:44;;;;;;;4.28;1.27;;;1.80;99.90;;;;;;5030679;28;20506;-47
2023/03/15 07:53:11;;;;;;;7.97;1.92;;;1.90;99.90;;;;;;5028703;28;20045;-48
2023/03/15 07:55:38;;;;;;;9.82;1.38;;;2.00;99.90;;;;;;5030760;28;20440;-50
2023/03/15 07:58:04;;;;;;;10.02;2.10;;;2.10;99.90;;;;;;5027502;28;20072;-48
2023/03/15 08:00:31;;;;;;;10.93;1.77;;;2.20;99.90;;;;;;5032514;28;20034;-47
2023/03/15 08:02:58;;;;;;;4.20;1.35;;;2.30;99.90;;;;;;5033030;28;20048;-48
2023/03/15 08:05:25;;;;;;;6.25;1.60;;;2.40;99.90;;;;;;5033508;28;20056;-47
2023/03/15 08:07:55;;;;;;;5.47;1.25;;;2.50;99.90;;;;;;5032543;28;20048;-48
2023/03/15 08:10:22;;;;;;;7.32;1.20;;;2.40;99.90;;;;;;5033523;28;20041;-47
2023/03/15 08:12:49;;;;;;;4.50;1.40;;;2.30;99.90;;;;;;5033763;28;20051;-47
2023/03/15 08:15:16;;;;;;;4.90;1.60;;;2.40;99.90;;;;;;5034048;28;20042;-47
2023/03/15 08:17:45;;;;;;;9.40;2.20;;;2.40;99.90;;;;;;5032853;28;20087;-49
2023/03/15 08:20:18;;;;;;;7.05;1.90;;;2.30;99.90;;;;;;5031943;28;20045;-48
2023/03/15 08:22:47;;;;;;;3.97;1.55;;;2.40;99.90;;;;;;5033789;28;20099;-48
2023/03/15 08:25:20;;;;;;;8.55;1.92;;;2.50;99.90;;;;;;5033498;28;20483;-48
2023/03/15 08:27:48;;;;;;;4.90;1.70;;;2.50;99.90;;;;;;5033636;28;20045;-47
2023/03/15 08:30:18;;;;;;;5.75;1.60;;;2.40;99.90;;;;;;5030966;28;20042;-47
2023/03/15 08:32:46;;;;;;;6.90;2.15;;;2.40;99.90;;;;;;5032096;28;20041;-47
2023/03/15 08:35:14;;;;;;;13.63;2.55;;;2.40;99.90;;;;;;5031881;28;20498;-47
2023/03/15 08:37:46;;;;;;;12.93;2.90;;;2.40;99.90;;;;;;5033676;28;20061;-48
2023/03/15 08:40:15;;;;;;;6.40;2.65;;;2.40;99.90;;;;;;5032241;28;20498;-48
2023/03/15 08:42:42;;;;;;;6.28;2.15;;;2.50;99.90;;;;;;5032333;28;20125;-47
2023/03/15 08:45:09;;;;;;;10.70;2.08;;;2.60;99.90;;;;;;5033770;28;20077;-48
2023/03/15 08:47:36;;;;;;;4.50;2.00;;;2.60;99.90;;;;;;5033164;28;20045;-48
2023/03/15 08:50:04;;;;;;;;;;;2.80;99.90;;;;;;5031618;28;20053;-47
2023/03/15 08:52:31;;;;;;;6.07;2.42;;;3.10;99.90;;;;;;5033103;28;20301;-47
2023/03/15 08:54:58;;;;;;;7.25;2.10;;;3.50;99.90;;;;;;5033018;28;20041;-49
2023/03/15 08:57:25;;;;;;;3.85;2.22;;;3.60;99.90;;;;;;5033252;28;20076;-48
2023/03/15 08:59:52;;;;;;;7.25;2.00;;;3.80;99.90;;;;;;5030998;28;20041;-49
2023/03/15 09:02:19;;;;;;;7.85;1.92;;;3.90;99.90;;;;;;5031237;28;20041;-47
2023/03/15 09:04:46;;;;;;;7.00;2.22;;;4.00;99.90;;;;;;5032223;28;20499;-47
2023/03/15 09:07:14;;;;;;;10.00;3.50;;;3.90;99.90;;;;;;5030909;28;20042;-49
2023/03/15 09:09:47;;;;;;;5.38;2.50;;;3.80;99.90;;;;;;5027461;28;20452;-48
2023/03/15 09:12:17;;;;;;;3.85;1.83;;;3.80;99.90;;;;;;5031834;28;20490;-48
2023/03/15 09:14:44;;;;;;;3.90;2.05;;;3.80;99.90;;;;;;5032668;28;20076;-49
2023/03/15 09:17:10;;;;;;;5.47;1.92;;;3.90;99.90;;;;;;5031942;28;20498;-49
2023/03/15 09:19:38;;;;;;;6.32;2.17;;;4.00;99.90;;;;;;5032520;28;20124;-48
2023/03/15 09:22:05;;;;;;;;;;;4.20;99.90;;;;;;5032882;28;20050;-49
2023/03/15 09:24:49;;;;;;;5.85;2.15;;;4.50;99.90;;;;;;5028785;28;19920;-49
2023/03/15 09:27:18;;;;;;;7.15;2.35;;;4.60;99.90;;;;;;5032270;28;20050;-48
2023/03/15 09:29:44;;;;;;;;;;;4.70;99.90;;;;;;5032647;28;20434;-48
2023/03/15 09:32:12;;;;;;;6.82;2.65;;;4.80;99.90;;;;;;5031442;28;20433;-52
2023/03/15 09:34:39;;;;;;;6.65;2.35;;;5.00;99.90;;;;;;5032241;28;20472;-48
2023/03/15 09:37:08;;;;;;;5.43;2.20;;;5.00;99.90;;;;;;5031435;28;20116;-47
2023/03/15 09:39:35;;;;;;;;;;;5.00;99.90;;;;;;5031914;28;20063;-48
2023/03/15 09:42:09;;;;;;;6.93;2.00;;;5.00;99.90;;;;;;5030023;28;20048;-47
2023/03/15 09:44:47;;;;;;;7.28;2.60;;;5.20;99.90;;;;;;5031795;28;20087;-48
2023/03/15 09:47:32;;;;;;;6.18;2.20;;;5.30;99.90;;;;;;5031478;28;20050;-47
2023/03/15 09:50:10;;;;;;;6.03;1.73;;;5.30;99.90;;;;;;5027480;28;20107;-49
2023/03/15 09:52:47;;;;;;;5.85;1.83;;;5.30;99.90;;;;;;5031863;28;20459;-48
2023/03/15 09:55:22;;;;;;;6.55;1.77;;;5.30;99.90;;;;;;5030335;28;20087;-48
2023/03/15 09:58:01;;;;;;;4.82;1.75;;;5.20;99.90;;;;;;5031050;28;20037;-48
2023/03/15 10:00:45;;;;;;;5.25;1.70;;;5.00;99.90;;;;;;5031195;28;20045;-48
2023/03/15 10:03:25;;;;;;;5.85;1.60;;;5.10;99.90;;;;;;5029623;28;20041;-48
2023/03/15 10:09:41;;;;;;;7.07;1.52;;;5.00;99.90;;;;;;5006694;28;20558;-47
2023/03/15 10:12:17;;;;;;;2.25;0.98;;;5.10;99.90;;;;;;5004197;28;20081;-47
2023/03/15 10:15:22;;;;;;;2.47;1.20;;;5.20;99.90;;;;;;5046289;28;20048;-47
2023/03/15 10:17:58;;;;;;;4.32;1.45;;;5.40;99.90;;;;;;5071067;28;20045;-48
2023/03/15 10:20:32;;;;;;;3.42;1.33;;;5.60;99.90;;;;;;5066864;28;20043;-48
2023/03/15 10:23:10;;;;;;;3.47;1.15;;;5.70;99.90;;;;;;5070862;28;20039;-47
2023/03/15 10:25:37;;;;;;;5.30;1.37;;;5.70;99.90;;;;;;5071881;28;20068;-47
2023/03/15 10:28:14;;;;;;;4.03;1.10;;;5.50;99.90;;;;;;5062339;28;20040;-47
2023/03/15 10:30:47;;;;;;;2.97;1.50;;;5.50;99.90;;;;;;5070960;28;20036;-48
2023/03/15 10:33:28;;;;;;;4.47;1.20;;;5.60;99.90;;;;;;5071042;28;20055;-48
2023/03/15 10:35:55;;;;;;;2.33;1.17;;;5.80;99.90;;;;;;5068007;28;20056;-48
2023/03/15 10:38:33;;;;;;;3.33;1.10;;;6.10;99.90;;;;;;5071053;28;20123;-47
2023/03/15 10:41:00;;;;;;;3.92;1.27;;;6.30;99.90;;;;;;5067184;28;20045;-47
2023/03/15 10:43:30;;;;;;;3.95;1.27;;;6.50;99.90;;;;;;5071059;28;20037;-47
2023/03/15 10:46:12;;;;;;;5.70;1.45;;;6.60;99.90;;;;;;5071003;28;20052;-47
2023/03/15 10:48:51;;;;;;;3.72;1.30;;;6.80;99.90;;;;;;5071039;28;20101;-49
2023/03/15 10:51:28;;;;;;;4.25;1.52;;;6.80;99.90;;;;;;5065882;28;20101;-49
2023/03/15 10:54:00;;;;;;;7.85;1.80;;;7.20;99.90;;;;;;5070973;28;20040;-49
2023/03/15 10:56:30;;;;;;;6.30;1.63;;;7.30;99.90;;;;;;5070507;28;20485;-49
2023/03/15 10:58:58;;;;;;;5.80;2.30;;;7.10;99.90;;;;;;5070663;28;20067;-49
2023/03/15 11:01:38;;;;;;;2.13;1.40;;;6.80;99.90;;;;;;5062788;28;20043;-49
2023/03/15 11:04:06;;;;;;;5.15;1.80;;;6.60;99.90;;;;;;5066052;28;20040;-49
2023/03/15 11:06:49;;;;;;;5.57;1.60;;;6.60;99.90;;;;;;5070656;28;20044;-49
2023/03/15 11:09:21;;;;;;;2.95;1.60;;;6.40;99.90;;;;;;5070423;28;20044;-49
2023/03/15 11:12:03;;;;;;;4.10;1.70;;;6.40;99.90;;;;;;5064213;28;20047;-49
2023/03/15 11:14:32;;;;;;;3.83;1.60;;;6.40;99.90;;;;;;5070926;28;20047;-49
2023/03/15 11:17:00;;;;;;;3.28;1.70;;;6.60;99.90;;;;;;5070570;28;20052;-51
2023/03/15 11:19:31;;;;;;;6.22;1.60;;;7.00;99.90;;;;;;5063056;28;20081;-48
2023/03/15 11:22:00;;;;;;;5.63;1.70;;;7.40;99.90;;;;;;5067989;28;20107;-48
2023/03/15 11:24:32;;;;;;;3.75;1.48;;;7.60;99.90;;;;;;5070668;28;20094;-48
2023/03/15 11:27:13;;;;;;;3.58;1.75;;;7.60;99.90;;;;;;5070860;28;20048;-48
2023/03/15 11:29:47;;;;;;;3.30;1.63;;;7.40;99.30;;;;;;5068574;28;20576;-48
2023/03/15 11:32:20;;;;;;;2.35;1.40;;;7.50;98.90;;;;;;5066425;28;20649;-49
2023/03/15 11:34:53;;;;;;;2.45;1.00;;;7.50;96.90;;;;;;5072568;28;20048;-49
2023/03/15 11:37:23;;;;;;;2.97;1.10;;;7.60;96.70;;;;;;5074477;28;20098;-48
2023/03/15 11:40:00;;;;;;;4.32;1.15;;;7.60;98.50;;;;;;5069022;28;20094;-48
2023/03/15 11:42:48;;;;;;;1.10;0.82;;;7.70;98.80;;;;;;5068664;28;20041;-49
2023/03/15 11:45:41;;;;;;;2.13;0.50;;;7.70;96.70;;;;;;5068757;28;20101;-49
2023/03/15 11:48:48;;;;;;;1.35;0.60;;;7.60;90.50;;;;;;5067385;28;20066;-50
2023/03/15 11:51:15;;;;;;;0.73;0.40;;;7.70;91.50;;;;;;5073377;28;20447;-48
2023/03/15 11:53:46;;;;;;;0.88;0.60;;;7.70;87.60;;;;;;5074300;28;20105;-49
2023/03/15 11:56:46;;;;;;;0.65;0.40;;;7.40;90.10;;;;;;5064044;28;20039;-49
2023/03/15 11:59:31;;;;;;;2.05;0.60;;;7.90;94.40;;;;;;5050516;28;20103;-50
2023/03/15 12:02:18;;;;;;;1.00;0.60;;;8.10;88.60;;;;;;5054024;28;20124;-48
2023/03/15 12:04:48;;;;;;;0.65;0.60;;;8.00;88.90;;;;;;5022881;28;20508;-48
2023/03/15 12:07:17;;;;;;;1.67;0.65;;;7.80;91.60;;;;;;5063134;28;20051;-49
2023/03/15 12:09:55;;;;;;;1.20;0.70;;;7.80;92.30;;;;;;5063530;28;20041;-49
2023/03/15 12:12:24;;;;;;;1.15;0.60;;;8.00;92.20;;;;;;5073715;28;20128;-49
2023/03/15 12:15:12;;;;;;;2.72;0.80;;;7.80;93.50;;;;;;5073600;28;20037;-48
2023/03/15 12:17:48;;;;;;;4.50;0.70;;;7.40;93.70;;;;;;5062129;28;20072;-48
2023/03/15 12:20:16;;;;;;;1.15;0.40;;;7.30;92.70;;;;;;5073407;28;20382;-48
2023/03/15 12:22:52;;;;;;;0.93;0.60;;;7.30;88.70;;;;;;5067820;28;20049;-49
2023/03/15 12:25:30;;;;;;;2.47;0.77;;;7.10;90.10;;;;;;5065552;28;20044;-48
2023/03/15 12:28:07;;;;;;;3.05;0.70;;;7.10;88.40;;;;;;5072581;28;20044;-48
2023/03/15 12:30:43;;;;;;;1.13;0.45;;;7.10;90.40;;;;;;5069542;28;20449;-48
2023/03/15 12:33:31;;;;;;;1.58;0.70;;;7.30;91.00;;;;;;5072572;28;20119;-51
2023/03/15 12:36:13;;;;;;;1.42;0.52;;;7.00;88.20;;;;;;5073650;28;20105;-48
2023/03/15 12:39:00;;;;;;;1.23;0.55;;;6.90;90.40;;;;;;5066241;28;20095;-48
2023/03/15 12:41:39;;;;;;;4.30;0.57;;;7.10;89.40;;;;;;5073100;28;20055;-48
2023/03/15 12:44:32;;;;;;;2.30;0.50;;;7.10;90.70;;;;;;5073148;28;20483;-49
2023/03/15 12:47:00;;;;;;;1.40;0.50;;;7.10;88.40;;;;;;5069256;28;20037;-49
2023/03/15 12:49:32;;;;;;;0.70;0.52;;;7.20;87.90;;;;;;5072898;28;20675;-48
2023/03/15 12:52:01;;;;;;;1.15;0.65;;;7.50;90.20;;;;;;5073284;28;20040;-49
2023/03/15 12:54:49;;;;;;;1.33;0.50;;;7.70;86.20;;;;;;5066072;28;20044;-49
2023/03/15 12:57:21;;;;;;;1.58;0.35;;;7.60;90.30;;;;;;5072955;28;20389;-49
2023/03/15 12:59:54;;;;;;;0.77;0.43;;;7.50;87.90;;;;;;5072896;28;20048;-49
2023/03/15 13:02:42;;;;;;;2.03;0.65;;;7.50;87.50;;;;;;5069945;28;20048;-49
2023/03/15 13:05:36;;;;;;;0.95;0.60;;;7.50;90.00;;;;;;5065393;28;20048;-50
2023/03/15 13:08:28;;;;;;;0.50;0.30;;;7.60;88.40;;;;;;5072683;28;20405;-50
2023/03/15 13:10:55;;;;;;;1.30;0.57;;;7.40;90.60;;;;;;5072956;28;20040;-48
2023/03/15 13:13:44;;;;;;;1.58;0.50;;;7.40;90.10;;;;;;5071040;28;20051;-49
2023/03/15 13:16:15;;;;;;;2.42;0.43;;;7.40;87.90;;;;;;5072544;28;20040;-49
2023/03/15 13:19:13;;;;;;;2.08;0.63;;;7.30;88.50;;;;;;5066573;28;20127;-50
2023/03/15 13:22:03;;;;;;;2.03;0.40;;;7.30;87.40;;;;;;5067583;28;20097;-50
2023/03/15 13:24:41;;;;;;;2.95;0.70;;;7.40;89.40;;;;;;5072199;28;20028;-49
2023/03/15 13:27:33;;;;;;;1.05;0.40;;;7.40;89.50;;;;;;5063620;28;20049;-51
2023/03/15 13:30:32;;;;;;;1.90;0.47;;;7.40;87.70;;;;;;5064180;28;20448;-49
2023/03/15 13:33:18;;;;;;;0.68;0.40;;;7.30;83.80;;;;;;5071328;28;20576;-49
2023/03/15 13:36:06;;;;;;;0.40;0.30;;;7.30;82.60;;;;;;5064756;28;20076;-49